Main page
METAR-TAF:

METAR-TAF

Airports :

Chennai, India

Chennai International Airport

latitude: 13-00N, longitude: 080-11E, elevation: 10 m

Current weather observation

The report was made 33 minutes ago, at 14:30 UTC
Wind 5 kt from the Southeast
Temperature 29°C
Humidity 74%
Pressure 1011 hPa
Visibility: 6000 m

METAR: VOMM 291430Z 14005KT 6000 NSC 29/24 Q1011 NOSIG

Time: 20:33 (15:03 UTC)

Forecast

The report was made 4 hours and 3 minutes ago, at 11:00 UTC
Forecast valid from 29 at 12 UTC to 30 at 18 UTC
Wind 5 kt from the Southeast
Visibility: 6000 m
Few clouds at a height of 2000 ft
Becoming
from 29 at 20 UTC to 29 at 21 UTC
Wind kt from the North
Visibility: 4000 m
mist
Becoming
from 30 at 02 UTC to 30 at 03 UTC
Wind 5 kt from the Southwest
Visibility: 6000 m
Becoming
from 30 at 10 UTC to 30 at 11 UTC
Wind 5 kt from the Southeast

TAF: VOMM 291100Z 2912/3018 14005KT 6000 FEW020 BECMG 2920/2921 00000KT 4000 BR BECMG 3002/3003 22005KT 6000 BECMG 3010/3011 14005KT

Weather observations and forecasts of more than 4000 airports (METAR and TAF reports).

The available stations are represented by yellow and red dots on the map.

Hover mouse over dot to see the name of the station.

Then click to see weather observations and forecasts.

To change the map : click on the green buttons with a black cross to zoom in, on the green button with a dash to zoom out, or on the green arrows for adjacent maps.


METAR-TAF: